sensor_id;sensor_type;location;lat;lon;timestamp;P1;durP1;ratioP1;P2;durP2;ratioP2
61038;SDS011;46919;45.816;3.104;2023-08-17T00:00:02;2.50;;;1.60;;
61038;SDS011;46919;45.816;3.104;2023-08-17T00:02:29;3.47;;;1.25;;
61038;SDS011;46919;45.816;3.104;2023-08-17T00:04:54;4.43;;;1.40;;
61038;SDS011;46919;45.816;3.104;2023-08-17T00:07:19;2.83;;;1.50;;
61038;SDS011;46919;45.816;3.104;2023-08-17T00:09:45;4.38;;;1.50;;
61038;SDS011;46919;45.816;3.104;2023-08-17T00:12:10;3.15;;;1.45;;
61038;SDS011;46919;45.816;3.104;2023-08-17T00:14:36;2.80;;;1.65;;
61038;SDS011;46919;45.816;3.104;2023-08-17T00:17:01;4.97;;;1.40;;
61038;SDS011;46919;45.816;3.104;2023-08-17T00:19:28;3.45;;;1.50;;
61038;SDS011;46919;45.816;3.104;2023-08-17T00:21:53;2.92;;;1.48;;
61038;SDS011;46919;45.816;3.104;2023-08-17T00:24:20;6.53;;;1.90;;
61038;SDS011;46919;45.816;3.104;2023-08-17T00:26:45;9.98;;;1.65;;
61038;SDS011;46919;45.816;3.104;2023-08-17T00:29:11;7.90;;;1.77;;
61038;SDS011;46919;45.816;3.104;2023-08-17T00:31:36;3.03;;;1.50;;
61038;SDS011;46919;45.816;3.104;2023-08-17T00:34:01;6.18;;;1.40;;
61038;SDS011;46919;45.816;3.104;2023-08-17T00:36:27;3.22;;;1.55;;
61038;SDS011;46919;45.816;3.104;2023-08-17T00:38:53;6.82;;;1.50;;
61038;SDS011;46919;45.816;3.104;2023-08-17T00:41:18;6.43;;;1.50;;
61038;SDS011;46919;45.816;3.104;2023-08-17T00:43:43;2.65;;;1.10;;
61038;SDS011;46919;45.816;3.104;2023-08-17T00:46:10;6.18;;;1.40;;
61038;SDS011;46919;45.816;3.104;2023-08-17T00:48:36;2.25;;;1.50;;
61038;SDS011;46919;45.816;3.104;2023-08-17T00:51:02;3.92;;;1.60;;
61038;SDS011;46919;45.816;3.104;2023-08-17T00:53:28;5.25;;;1.40;;
61038;SDS011;46919;45.816;3.104;2023-08-17T00:55:56;7.57;;;1.58;;
61038;SDS011;46919;45.816;3.104;2023-08-17T00:58:22;6.38;;;1.38;;
61038;SDS011;46919;45.816;3.104;2023-08-17T01:00:47;5.95;;;1.75;;
61038;SDS011;46919;45.816;3.104;2023-08-17T01:03:13;4.97;;;1.40;;
61038;SDS011;46919;45.816;3.104;2023-08-17T01:05:40;2.25;;;1.33;;
61038;SDS011;46919;45.816;3.104;2023-08-17T01:08:05;5.45;;;1.50;;
61038;SDS011;46919;45.816;3.104;2023-08-17T01:10:37;3.75;;;1.50;;
61038;SDS011;46919;45.816;3.104;2023-08-17T01:13:14;3.60;;;1.38;;
61038;SDS011;46919;45.816;3.104;2023-08-17T01:15:45;5.60;;;1.73;;
61038;SDS011;46919;45.816;3.104;2023-08-17T01:18:23;2.92;;;1.40;;
61038;SDS011;46919;45.816;3.104;2023-08-17T01:20:52;4.70;;;1.85;;
61038;SDS011;46919;45.816;3.104;2023-08-17T01:23:18;3.30;;;1.65;;
61038;SDS011;46919;45.816;3.104;2023-08-17T01:25:44;4.32;;;1.52;;
61038;SDS011;46919;45.816;3.104;2023-08-17T01:28:10;4.50;;;1.80;;
61038;SDS011;46919;45.816;3.104;2023-08-17T01:31:11;3.00;;;1.40;;
61038;SDS011;46919;45.816;3.104;2023-08-17T01:36:04;3.55;;;1.45;;
61038;SDS011;46919;45.816;3.104;2023-08-17T01:38:36;5.93;;;1.60;;
61038;SDS011;46919;45.816;3.104;2023-08-17T01:41:04;4.38;;;1.55;;
61038;SDS011;46919;45.816;3.104;2023-08-17T01:43:31;5.10;;;1.50;;
61038;SDS011;46919;45.816;3.104;2023-08-17T01:45:57;2.83;;;1.90;;
61038;SDS011;46919;45.816;3.104;2023-08-17T01:48:23;3.17;;;1.40;;
61038;SDS011;46919;45.816;3.104;2023-08-17T01:50:49;4.10;;;1.38;;
61038;SDS011;46919;45.816;3.104;2023-08-17T01:53:14;2.45;;;1.45;;
61038;SDS011;46919;45.816;3.104;2023-08-17T01:55:39;2.38;;;1.52;;
61038;SDS011;46919;45.816;3.104;2023-08-17T01:58:05;5.45;;;1.70;;
61038;SDS011;46919;45.816;3.104;2023-08-17T02:00:30;4.68;;;1.50;;
61038;SDS011;46919;45.816;3.104;2023-08-17T02:02:56;4.15;;;1.38;;
61038;SDS011;46919;45.816;3.104;2023-08-17T02:05:21;4.47;;;1.75;;
61038;SDS011;46919;45.816;3.104;2023-08-17T02:07:46;7.25;;;1.95;;
61038;SDS011;46919;45.816;3.104;2023-08-17T02:10:12;7.50;;;1.58;;
61038;SDS011;46919;45.816;3.104;2023-08-17T02:12:37;5.38;;;1.98;;
61038;SDS011;46919;45.816;3.104;2023-08-17T02:15:03;2.38;;;1.70;;
61038;SDS011;46919;45.816;3.104;2023-08-17T02:17:28;4.20;;;1.80;;
61038;SDS011;46919;45.816;3.104;2023-08-17T02:19:54;2.45;;;1.75;;
61038;SDS011;46919;45.816;3.104;2023-08-17T02:22:19;3.60;;;1.73;;
61038;SDS011;46919;45.816;3.104;2023-08-17T02:24:45;3.35;;;1.85;;
61038;SDS011;46919;45.816;3.104;2023-08-17T02:27:11;2.78;;;1.65;;
61038;SDS011;46919;45.816;3.104;2023-08-17T02:29:37;3.00;;;1.67;;
61038;SDS011;46919;45.816;3.104;2023-08-17T02:32:02;4.40;;;1.60;;
61038;SDS011;46919;45.816;3.104;2023-08-17T02:34:28;2.47;;;1.60;;
61038;SDS011;46919;45.816;3.104;2023-08-17T02:36:53;3.33;;;1.70;;
61038;SDS011;46919;45.816;3.104;2023-08-17T02:39:18;3.35;;;1.73;;
61038;SDS011;46919;45.816;3.104;2023-08-17T02:41:44;5.93;;;1.63;;
61038;SDS011;46919;45.816;3.104;2023-08-17T02:44:14;5.10;;;1.73;;
61038;SDS011;46919;45.816;3.104;2023-08-17T02:46:39;6.00;;;1.77;;
61038;SDS011;46919;45.816;3.104;2023-08-17T02:49:05;3.17;;;1.80;;
61038;SDS011;46919;45.816;3.104;2023-08-17T02:51:30;2.65;;;1.80;;
61038;SDS011;46919;45.816;3.104;2023-08-17T02:53:56;4.18;;;1.67;;
61038;SDS011;46919;45.816;3.104;2023-08-17T02:56:21;4.60;;;1.77;;
61038;SDS011;46919;45.816;3.104;2023-08-17T02:58:46;2.92;;;1.50;;
61038;SDS011;46919;45.816;3.104;2023-08-17T03:01:12;3.60;;;1.73;;
61038;SDS011;46919;45.816;3.104;2023-08-17T03:03:37;2.67;;;1.65;;
61038;SDS011;46919;45.816;3.104;2023-08-17T03:06:03;2.78;;;1.77;;
61038;SDS011;46919;45.816;3.104;2023-08-17T03:08:28;5.22;;;1.80;;
61038;SDS011;46919;45.816;3.104;2023-08-17T03:10:54;3.55;;;2.10;;
61038;SDS011;46919;45.816;3.104;2023-08-17T03:13:19;3.45;;;1.83;;
61038;SDS011;46919;45.816;3.104;2023-08-17T03:15:45;7.75;;;2.10;;
61038;SDS011;46919;45.816;3.104;2023-08-17T03:18:11;2.90;;;1.88;;
61038;SDS011;46919;45.816;3.104;2023-08-17T03:20:36;4.65;;;2.00;;
61038;SDS011;46919;45.816;3.104;2023-08-17T03:23:02;2.85;;;2.05;;
61038;SDS011;46919;45.816;3.104;2023-08-17T03:25:31;5.80;;;2.00;;
61038;SDS011;46919;45.816;3.104;2023-08-17T03:27:56;2.22;;;2.03;;
61038;SDS011;46919;45.816;3.104;2023-08-17T03:30:22;4.35;;;2.72;;
61038;SDS011;46919;45.816;3.104;2023-08-17T03:32:47;3.13;;;1.95;;
61038;SDS011;46919;45.816;3.104;2023-08-17T03:35:12;2.30;;;2.00;;
61038;SDS011;46919;45.816;3.104;2023-08-17T03:37:38;2.15;;;1.88;;
61038;SDS011;46919;45.816;3.104;2023-08-17T03:40:03;3.75;;;1.90;;
61038;SDS011;46919;45.816;3.104;2023-08-17T03:42:29;2.28;;;2.00;;
61038;SDS011;46919;45.816;3.104;2023-08-17T03:44:55;2.78;;;1.65;;
61038;SDS011;46919;45.816;3.104;2023-08-17T03:47:20;4.10;;;2.08;;
61038;SDS011;46919;45.816;3.104;2023-08-17T03:49:46;4.22;;;1.90;;
61038;SDS011;46919;45.816;3.104;2023-08-17T03:52:12;4.78;;;2.22;;
61038;SDS011;46919;45.816;3.104;2023-08-17T03:54:37;3.05;;;1.70;;
61038;SDS011;46919;45.816;3.104;2023-08-17T03:57:03;6.85;;;2.20;;
61038;SDS011;46919;45.816;3.104;2023-08-17T03:59:28;3.17;;;1.92;;
61038;SDS011;46919;45.816;3.104;2023-08-17T04:01:54;3.22;;;2.20;;
61038;SDS011;46919;45.816;3.104;2023-08-17T04:04:19;4.68;;;2.08;;
61038;SDS011;46919;45.816;3.104;2023-08-17T04:06:44;5.72;;;2.38;;
61038;SDS011;46919;45.816;3.104;2023-08-17T04:09:10;3.83;;;1.90;;
61038;SDS011;46919;45.816;3.104;2023-08-17T04:11:35;3.70;;;2.35;;
61038;SDS011;46919;45.816;3.104;2023-08-17T04:14:04;2.25;;;2.05;;
61038;SDS011;46919;45.816;3.104;2023-08-17T04:16:29;6.38;;;1.85;;
61038;SDS011;46919;45.816;3.104;2023-08-17T04:18:55;5.40;;;2.38;;
61038;SDS011;46919;45.816;3.104;2023-08-17T04:21:20;3.60;;;1.90;;
61038;SDS011;46919;45.816;3.104;2023-08-17T04:23:46;5.10;;;2.20;;
61038;SDS011;46919;45.816;3.104;2023-08-17T04:26:11;2.60;;;2.03;;
61038;SDS011;46919;45.816;3.104;2023-08-17T04:28:37;3.17;;;2.30;;
61038;SDS011;46919;45.816;3.104;2023-08-17T04:31:02;4.90;;;2.40;;
61038;SDS011;46919;45.816;3.104;2023-08-17T04:33:28;2.80;;;2.13;;
61038;SDS011;46919;45.816;3.104;2023-08-17T04:35:53;3.75;;;2.42;;
61038;SDS011;46919;45.816;3.104;2023-08-17T04:38:19;3.10;;;2.80;;
61038;SDS011;46919;45.816;3.104;2023-08-17T04:40:44;3.53;;;2.50;;
61038;SDS011;46919;45.816;3.104;2023-08-17T04:43:10;2.67;;;2.40;;
61038;SDS011;46919;45.816;3.104;2023-08-17T04:45:36;3.95;;;2.50;;
61038;SDS011;46919;45.816;3.104;2023-08-17T04:48:01;3.53;;;2.60;;
61038;SDS011;46919;45.816;3.104;2023-08-17T04:50:27;5.15;;;2.70;;
61038;SDS011;46919;45.816;3.104;2023-08-17T04:52:52;5.32;;;2.60;;
61038;SDS011;46919;45.816;3.104;2023-08-17T04:55:17;4.85;;;2.42;;
61038;SDS011;46919;45.816;3.104;2023-08-17T04:57:43;4.32;;;2.97;;
61038;SDS011;46919;45.816;3.104;2023-08-17T05:00:08;2.90;;;2.70;;
61038;SDS011;46919;45.816;3.104;2023-08-17T05:02:35;3.75;;;3.15;;
61038;SDS011;46919;45.816;3.104;2023-08-17T05:05:04;7.90;;;4.05;;
61038;SDS011;46919;45.816;3.104;2023-08-17T05:07:31;5.97;;;3.58;;
61038;SDS011;46919;45.816;3.104;2023-08-17T05:09:56;4.72;;;3.33;;
61038;SDS011;46919;45.816;3.104;2023-08-17T05:12:21;3.35;;;2.90;;
61038;SDS011;46919;45.816;3.104;2023-08-17T05:14:47;6.40;;;2.67;;
61038;SDS011;46919;45.816;3.104;2023-08-17T05:17:12;6.47;;;3.05;;
61038;SDS011;46919;45.816;3.104;2023-08-17T05:19:38;4.07;;;2.88;;
61038;SDS011;46919;45.816;3.104;2023-08-17T05:22:04;4.70;;;3.00;;
61038;SDS011;46919;45.816;3.104;2023-08-17T05:24:31;6.05;;;3.17;;
61038;SDS011;46919;45.816;3.104;2023-08-17T05:26:56;4.18;;;2.92;;
61038;SDS011;46919;45.816;3.104;2023-08-17T05:29:21;5.15;;;2.58;;
61038;SDS011;46919;45.816;3.104;2023-08-17T05:31:47;4.32;;;2.95;;
61038;SDS011;46919;45.816;3.104;2023-08-17T05:34:12;6.28;;;3.30;;
61038;SDS011;46919;45.816;3.104;2023-08-17T05:36:38;3.97;;;2.83;;
61038;SDS011;46919;45.816;3.104;2023-08-17T05:39:04;6.22;;;3.30;;
61038;SDS011;46919;45.816;3.104;2023-08-17T05:41:29;4.18;;;3.25;;
61038;SDS011;46919;45.816;3.104;2023-08-17T05:43:55;5.30;;;2.80;;
61038;SDS011;46919;45.816;3.104;2023-08-17T05:46:20;4.35;;;2.90;;
61038;SDS011;46919;45.816;3.104;2023-08-17T05:48:45;4.78;;;2.90;;
61038;SDS011;46919;45.816;3.104;2023-08-17T05:51:11;7.53;;;3.05;;
61038;SDS011;46919;45.816;3.104;2023-08-17T05:53:36;5.47;;;2.70;;
61038;SDS011;46919;45.816;3.104;2023-08-17T05:56:02;5.50;;;3.30;;
61038;SDS011;46919;45.816;3.104;2023-08-17T05:58:28;4.15;;;2.70;;
61038;SDS011;46919;45.816;3.104;2023-08-17T06:00:53;5.07;;;2.78;;
61038;SDS011;46919;45.816;3.104;2023-08-17T06:03:18;7.60;;;3.20;;
61038;SDS011;46919;45.816;3.104;2023-08-17T06:05:44;6.00;;;3.03;;
61038;SDS011;46919;45.816;3.104;2023-08-17T06:08:09;5.07;;;2.90;;
61038;SDS011;46919;45.816;3.104;2023-08-17T06:10:35;6.53;;;2.75;;
61038;SDS011;46919;45.816;3.104;2023-08-17T06:13:00;3.92;;;2.70;;
61038;SDS011;46919;45.816;3.104;2023-08-17T06:15:25;7.05;;;3.08;;
61038;SDS011;46919;45.816;3.104;2023-08-17T06:17:51;4.38;;;2.78;;
61038;SDS011;46919;45.816;3.104;2023-08-17T06:20:17;6.80;;;3.08;;
61038;SDS011;46919;45.816;3.104;2023-08-17T06:22:43;7.35;;;3.40;;
61038;SDS011;46919;45.816;3.104;2023-08-17T06:25:08;4.95;;;3.08;;
61038;SDS011;46919;45.816;3.104;2023-08-17T06:27:34;4.03;;;2.88;;
61038;SDS011;46919;45.816;3.104;2023-08-17T06:30:01;5.82;;;3.05;;
61038;SDS011;46919;45.816;3.104;2023-08-17T06:32:28;6.00;;;3.50;;
61038;SDS011;46919;45.816;3.104;2023-08-17T06:34:53;5.60;;;3.03;;
61038;SDS011;46919;45.816;3.104;2023-08-17T06:37:19;3.75;;;2.63;;
61038;SDS011;46919;45.816;3.104;2023-08-17T06:39:45;3.20;;;2.90;;
61038;SDS011;46919;45.816;3.104;2023-08-17T06:42:10;5.72;;;3.35;;
61038;SDS011;46919;45.816;3.104;2023-08-17T06:44:35;4.43;;;3.05;;
61038;SDS011;46919;45.816;3.104;2023-08-17T06:47:01;4.63;;;3.45;;
61038;SDS011;46919;45.816;3.104;2023-08-17T06:49:26;4.47;;;3.00;;
61038;SDS011;46919;45.816;3.104;2023-08-17T06:51:52;3.83;;;3.10;;
61038;SDS011;46919;45.816;3.104;2023-08-17T06:54:18;4.45;;;3.30;;
61038;SDS011;46919;45.816;3.104;2023-08-17T06:56:43;8.60;;;3.10;;
61038;SDS011;46919;45.816;3.104;2023-08-17T06:59:09;8.23;;;3.47;;
61038;SDS011;46919;45.816;3.104;2023-08-17T07:01:34;7.68;;;3.90;;
61038;SDS011;46919;45.816;3.104;2023-08-17T07:03:59;6.88;;;3.65;;
61038;SDS011;46919;45.816;3.104;2023-08-17T07:06:25;7.85;;;4.00;;
61038;SDS011;46919;45.816;3.104;2023-08-17T07:08:50;6.38;;;3.67;;
61038;SDS011;46919;45.816;3.104;2023-08-17T07:11:17;10.23;;;4.05;;
61038;SDS011;46919;45.816;3.104;2023-08-17T07:13:43;7.13;;;3.83;;
61038;SDS011;46919;45.816;3.104;2023-08-17T07:16:09;8.25;;;3.90;;
61038;SDS011;46919;45.816;3.104;2023-08-17T07:18:34;10.10;;;4.30;;
61038;SDS011;46919;45.816;3.104;2023-08-17T07:21:00;6.00;;;4.03;;
61038;SDS011;46919;45.816;3.104;2023-08-17T07:23:25;7.07;;;4.47;;
61038;SDS011;46919;45.816;3.104;2023-08-17T07:25:50;4.78;;;4.03;;
61038;SDS011;46919;45.816;3.104;2023-08-17T07:28:16;4.55;;;4.07;;
61038;SDS011;46919;45.816;3.104;2023-08-17T07:30:41;6.93;;;4.32;;
61038;SDS011;46919;45.816;3.104;2023-08-17T07:33:07;7.78;;;4.25;;
61038;SDS011;46919;45.816;3.104;2023-08-17T07:35:32;7.07;;;4.70;;
61038;SDS011;46919;45.816;3.104;2023-08-17T07:37:58;6.38;;;4.80;;
61038;SDS011;46919;45.816;3.104;2023-08-17T07:40:23;7.28;;;4.38;;
61038;SDS011;46919;45.816;3.104;2023-08-17T07:42:48;9.27;;;5.10;;
61038;SDS011;46919;45.816;3.104;2023-08-17T07:45:14;8.00;;;5.00;;
61038;SDS011;46919;45.816;3.104;2023-08-17T07:47:40;6.53;;;5.30;;
61038;SDS011;46919;45.816;3.104;2023-08-17T07:50:06;4.65;;;4.22;;
61038;SDS011;46919;45.816;3.104;2023-08-17T07:52:31;4.55;;;4.03;;
61038;SDS011;46919;45.816;3.104;2023-08-17T07:54:57;4.93;;;3.75;;
61038;SDS011;46919;45.816;3.104;2023-08-17T07:57:22;8.23;;;4.22;;
61038;SDS011;46919;45.816;3.104;2023-08-17T07:59:48;5.85;;;4.25;;
61038;SDS011;46919;45.816;3.104;2023-08-17T08:02:13;5.95;;;4.10;;
61038;SDS011;46919;45.816;3.104;2023-08-17T08:04:39;6.88;;;4.07;;
61038;SDS011;46919;45.816;3.104;2023-08-17T08:07:04;6.50;;;3.90;;
61038;SDS011;46919;45.816;3.104;2023-08-17T08:09:30;6.95;;;3.90;;
61038;SDS011;46919;45.816;3.104;2023-08-17T08:11:56;5.75;;;3.83;;
61038;SDS011;46919;45.816;3.104;2023-08-17T08:14:21;6.28;;;3.78;;
61038;SDS011;46919;45.816;3.104;2023-08-17T08:16:46;4.78;;;3.97;;
61038;SDS011;46919;45.816;3.104;2023-08-17T08:19:12;6.28;;;3.83;;
61038;SDS011;46919;45.816;3.104;2023-08-17T08:21:38;7.45;;;4.07;;
61038;SDS011;46919;45.816;3.104;2023-08-17T08:24:03;8.55;;;4.18;;
61038;SDS011;46919;45.816;3.104;2023-08-17T08:26:29;4.15;;;3.75;;
61038;SDS011;46919;45.816;3.104;2023-08-17T08:28:54;4.85;;;3.92;;
61038;SDS011;46919;45.816;3.104;2023-08-17T08:31:19;7.60;;;4.53;;
61038;SDS011;46919;45.816;3.104;2023-08-17T08:33:45;8.25;;;4.63;;
61038;SDS011;46919;45.816;3.104;2023-08-17T08:36:11;5.97;;;4.50;;
61038;SDS011;46919;45.816;3.104;2023-08-17T08:38:36;4.82;;;4.18;;
61038;SDS011;46919;45.816;3.104;2023-08-17T08:41:02;7.80;;;4.78;;
61038;SDS011;46919;45.816;3.104;2023-08-17T08:43:28;4.38;;;3.70;;
61038;SDS011;46919;45.816;3.104;2023-08-17T08:45:54;11.48;;;5.10;;
61038;SDS011;46919;45.816;3.104;2023-08-17T08:48:20;6.47;;;3.63;;
61038;SDS011;46919;45.816;3.104;2023-08-17T08:50:48;5.97;;;4.05;;
61038;SDS011;46919;45.816;3.104;2023-08-17T08:53:15;11.25;;;4.63;;
61038;SDS011;46919;45.816;3.104;2023-08-17T08:55:51;7.57;;;4.28;;
61038;SDS011;46919;45.816;3.104;2023-08-17T08:58:24;5.35;;;4.35;;
61038;SDS011;46919;45.816;3.104;2023-08-17T09:00:51;8.93;;;4.15;;
61038;SDS011;46919;45.816;3.104;2023-08-17T09:03:17;7.28;;;4.25;;
61038;SDS011;46919;45.816;3.104;2023-08-17T09:05:46;6.85;;;4.03;;
61038;SDS011;46919;45.816;3.104;2023-08-17T09:08:13;7.30;;;4.13;;
61038;SDS011;46919;45.816;3.104;2023-08-17T09:10:41;5.70;;;4.38;;
61038;SDS011;46919;45.816;3.104;2023-08-17T09:13:06;5.72;;;3.85;;
61038;SDS011;46919;45.816;3.104;2023-08-17T09:15:32;10.25;;;4.43;;
61038;SDS011;46919;45.816;3.104;2023-08-17T09:17:57;7.05;;;3.90;;
61038;SDS011;46919;45.816;3.104;2023-08-17T09:20:39;6.70;;;4.40;;
61038;SDS011;46919;45.816;3.104;2023-08-17T09:23:18;6.15;;;4.30;;
61038;SDS011;46919;45.816;3.104;2023-08-17T09:25:46;4.25;;;3.85;;
61038;SDS011;46919;45.816;3.104;2023-08-17T09:28:12;6.38;;;4.68;;
61038;SDS011;46919;45.816;3.104;2023-08-17T09:30:58;9.63;;;6.90;;
61038;SDS011;46919;45.816;3.104;2023-08-17T09:33:26;7.10;;;4.90;;
61038;SDS011;46919;45.816;3.104;2023-08-17T09:35:53;7.97;;;5.18;;
61038;SDS011;46919;45.816;3.104;2023-08-17T09:38:19;9.48;;;7.20;;
61038;SDS011;46919;45.816;3.104;2023-08-17T09:40:45;5.38;;;4.35;;
61038;SDS011;46919;45.816;3.104;2023-08-17T09:43:11;5.40;;;3.55;;
61038;SDS011;46919;45.816;3.104;2023-08-17T09:45:38;5.60;;;4.28;;
61038;SDS011;46919;45.816;3.104;2023-08-17T09:48:05;5.35;;;4.65;;
61038;SDS011;46919;45.816;3.104;2023-08-17T09:50:31;5.82;;;4.15;;
61038;SDS011;46919;45.816;3.104;2023-08-17T09:52:57;5.20;;;3.95;;
61038;SDS011;46919;45.816;3.104;2023-08-17T09:55:23;6.55;;;4.32;;
61038;SDS011;46919;45.816;3.104;2023-08-17T09:57:49;6.40;;;3.78;;
61038;SDS011;46919;45.816;3.104;2023-08-17T10:00:15;5.45;;;3.60;;
61038;SDS011;46919;45.816;3.104;2023-08-17T10:02:42;5.05;;;3.83;;
61038;SDS011;46919;45.816;3.104;2023-08-17T10:05:10;6.07;;;3.63;;
61038;SDS011;46919;45.816;3.104;2023-08-17T10:07:38;9.23;;;3.95;;
61038;SDS011;46919;45.816;3.104;2023-08-17T10:10:08;7.15;;;3.50;;
61038;SDS011;46919;45.816;3.104;2023-08-17T10:12:46;5.63;;;3.80;;
61038;SDS011;46919;45.816;3.104;2023-08-17T10:15:18;6.38;;;3.30;;
61038;SDS011;46919;45.816;3.104;2023-08-17T10:20:32;6.53;;;3.42;;
61038;SDS011;46919;45.816;3.104;2023-08-17T10:23:14;4.43;;;3.50;;
61038;SDS011;46919;45.816;3.104;2023-08-17T10:25:42;7.38;;;3.50;;
61038;SDS011;46919;45.816;3.104;2023-08-17T10:28:11;5.63;;;3.30;;
61038;SDS011;46919;45.816;3.104;2023-08-17T10:30:37;9.98;;;3.38;;
61038;SDS011;46919;45.816;3.104;2023-08-17T10:33:05;5.25;;;3.28;;
61038;SDS011;46919;45.816;3.104;2023-08-17T10:35:31;8.75;;;3.38;;
61038;SDS011;46919;45.816;3.104;2023-08-17T10:37:58;7.30;;;3.83;;
61038;SDS011;46919;45.816;3.104;2023-08-17T10:40:27;4.70;;;3.25;;
61038;SDS011;46919;45.816;3.104;2023-08-17T10:42:57;5.65;;;3.40;;
61038;SDS011;46919;45.816;3.104;2023-08-17T10:47:51;6.57;;;3.20;;
61038;SDS011;46919;45.816;3.104;2023-08-17T10:50:58;7.55;;;3.00;;
61038;SDS011;46919;45.816;3.104;2023-08-17T10:53:30;8.95;;;3.33;;
61038;SDS011;46919;45.816;3.104;2023-08-17T10:55:59;9.32;;;3.08;;
61038;SDS011;46919;45.816;3.104;2023-08-17T10:58:25;3.85;;;2.90;;
61038;SDS011;46919;45.816;3.104;2023-08-17T11:00:53;5.55;;;3.25;;
61038;SDS011;46919;45.816;3.104;2023-08-17T11:03:20;5.28;;;3.30;;
61038;SDS011;46919;45.816;3.104;2023-08-17T11:05:53;7.50;;;3.00;;
61038;SDS011;46919;45.816;3.104;2023-08-17T11:08:28;9.15;;;3.53;;
61038;SDS011;46919;45.816;3.104;2023-08-17T11:13:37;5.70;;;3.43;;
61038;SDS011;46919;45.816;3.104;2023-08-17T11:16:04;6.57;;;3.30;;
61038;SDS011;46919;45.816;3.104;2023-08-17T11:18:31;5.28;;;3.40;;
61038;SDS011;46919;45.816;3.104;2023-08-17T11:20:57;5.22;;;3.15;;
61038;SDS011;46919;45.816;3.104;2023-08-17T11:23:23;4.95;;;3.17;;
61038;SDS011;46919;45.816;3.104;2023-08-17T11:25:49;4.45;;;3.17;;
61038;SDS011;46919;45.816;3.104;2023-08-17T11:28:17;8.65;;;3.45;;
61038;SDS011;46919;45.816;3.104;2023-08-17T11:30:43;6.93;;;3.38;;
61038;SDS011;46919;45.816;3.104;2023-08-17T11:33:08;8.57;;;3.47;;
61038;SDS011;46919;45.816;3.104;2023-08-17T11:35:35;9.43;;;3.60;;
61038;SDS011;46919;45.816;3.104;2023-08-17T11:38:01;6.55;;;3.22;;
61038;SDS011;46919;45.816;3.104;2023-08-17T11:40:28;8.90;;;3.20;;
61038;SDS011;46919;45.816;3.104;2023-08-17T11:42:54;6.53;;;3.10;;
61038;SDS011;46919;45.816;3.104;2023-08-17T11:45:20;10.18;;;3.53;;
61038;SDS011;46919;45.816;3.104;2023-08-17T11:47:46;4.55;;;3.00;;
61038;SDS011;46919;45.816;3.104;2023-08-17T11:50:13;4.97;;;3.30;;
61038;SDS011;46919;45.816;3.104;2023-08-17T11:52:39;8.05;;;3.30;;
61038;SDS011;46919;45.816;3.104;2023-08-17T11:55:06;5.95;;;3.17;;
61038;SDS011;46919;45.816;3.104;2023-08-17T11:57:34;5.43;;;3.20;;
61038;SDS011;46919;45.816;3.104;2023-08-17T12:00:00;4.57;;;2.80;;
61038;SDS011;46919;45.816;3.104;2023-08-17T12:02:27;6.15;;;3.05;;
61038;SDS011;46919;45.816;3.104;2023-08-17T12:04:54;7.65;;;3.17;;
61038;SDS011;46919;45.816;3.104;2023-08-17T12:07:21;8.32;;;3.00;;
61038;SDS011;46919;45.816;3.104;2023-08-17T12:09:48;4.40;;;2.88;;
61038;SDS011;46919;45.816;3.104;2023-08-17T12:12:17;7.10;;;2.60;;
61038;SDS011;46919;45.816;3.104;2023-08-17T12:14:43;4.43;;;2.67;;
61038;SDS011;46919;45.816;3.104;2023-08-17T12:17:14;4.43;;;2.80;;
61038;SDS011;46919;45.816;3.104;2023-08-17T12:19:44;6.28;;;3.13;;
61038;SDS011;46919;45.816;3.104;2023-08-17T12:22:13;5.80;;;2.90;;
61038;SDS011;46919;45.816;3.104;2023-08-17T12:24:39;7.88;;;2.70;;
61038;SDS011;46919;45.816;3.104;2023-08-17T12:27:05;6.38;;;2.85;;
61038;SDS011;46919;45.816;3.104;2023-08-17T12:29:31;7.63;;;2.90;;
61038;SDS011;46919;45.816;3.104;2023-08-17T12:31:57;6.45;;;3.17;;
61038;SDS011;46919;45.816;3.104;2023-08-17T12:34:23;4.10;;;2.80;;
61038;SDS011;46919;45.816;3.104;2023-08-17T12:36:49;5.80;;;3.00;;
61038;SDS011;46919;45.816;3.104;2023-08-17T12:39:15;7.18;;;2.63;;
61038;SDS011;46919;45.816;3.104;2023-08-17T12:41:40;6.20;;;2.65;;
61038;SDS011;46919;45.816;3.104;2023-08-17T12:44:06;7.53;;;2.90;;
61038;SDS011;46919;45.816;3.104;2023-08-17T12:46:31;5.05;;;3.13;;
61038;SDS011;46919;45.816;3.104;2023-08-17T12:48:58;5.38;;;2.63;;
61038;SDS011;46919;45.816;3.104;2023-08-17T12:51:24;5.65;;;2.63;;
61038;SDS011;46919;45.816;3.104;2023-08-17T12:53:49;8.52;;;2.75;;
61038;SDS011;46919;45.816;3.104;2023-08-17T12:56:15;5.55;;;2.60;;
61038;SDS011;46919;45.816;3.104;2023-08-17T12:58:40;8.43;;;3.00;;
61038;SDS011;46919;45.816;3.104;2023-08-17T13:01:06;5.82;;;3.22;;
61038;SDS011;46919;45.816;3.104;2023-08-17T13:03:31;5.25;;;2.60;;
61038;SDS011;46919;45.816;3.104;2023-08-17T13:05:57;4.53;;;2.53;;
61038;SDS011;46919;45.816;3.104;2023-08-17T13:08:22;6.07;;;2.97;;
61038;SDS011;46919;45.816;3.104;2023-08-17T13:10:48;7.28;;;3.00;;
61038;SDS011;46919;45.816;3.104;2023-08-17T13:13:13;11.80;;;3.30;;
61038;SDS011;46919;45.816;3.104;2023-08-17T13:15:38;6.32;;;3.00;;
61038;SDS011;46919;45.816;3.104;2023-08-17T13:18:04;7.93;;;3.10;;
61038;SDS011;46919;45.816;3.104;2023-08-17T13:20:30;5.18;;;2.95;;
61038;SDS011;46919;45.816;3.104;2023-08-17T13:22:55;7.40;;;3.33;;
61038;SDS011;46919;45.816;3.104;2023-08-17T13:25:21;7.97;;;3.38;;
61038;SDS011;46919;45.816;3.104;2023-08-17T13:27:46;6.30;;;3.55;;
61038;SDS011;46919;45.816;3.104;2023-08-17T13:30:12;5.75;;;2.92;;
61038;SDS011;46919;45.816;3.104;2023-08-17T13:32:37;5.45;;;2.97;;
61038;SDS011;46919;45.816;3.104;2023-08-17T13:35:03;6.00;;;3.08;;
61038;SDS011;46919;45.816;3.104;2023-08-17T13:37:29;6.85;;;3.10;;
61038;SDS011;46919;45.816;3.104;2023-08-17T13:39:54;6.55;;;2.88;;
61038;SDS011;46919;45.816;3.104;2023-08-17T13:42:20;6.40;;;3.00;;
61038;SDS011;46919;45.816;3.104;2023-08-17T13:44:45;5.20;;;2.95;;
61038;SDS011;46919;45.816;3.104;2023-08-17T13:47:11;7.18;;;3.10;;
61038;SDS011;46919;45.816;3.104;2023-08-17T13:49:37;6.63;;;3.25;;
61038;SDS011;46919;45.816;3.104;2023-08-17T13:52:02;6.20;;;2.90;;
61038;SDS011;46919;45.816;3.104;2023-08-17T13:54:28;7.65;;;3.00;;
61038;SDS011;46919;45.816;3.104;2023-08-17T13:56:54;5.65;;;3.08;;
61038;SDS011;46919;45.816;3.104;2023-08-17T13:59:19;5.35;;;2.83;;
61038;SDS011;46919;45.816;3.104;2023-08-17T14:01:44;4.95;;;3.03;;
61038;SDS011;46919;45.816;3.104;2023-08-17T14:04:10;6.65;;;2.85;;
61038;SDS011;46919;45.816;3.104;2023-08-17T14:06:39;7.68;;;2.70;;
61038;SDS011;46919;45.816;3.104;2023-08-17T14:09:05;5.03;;;3.05;;
61038;SDS011;46919;45.816;3.104;2023-08-17T14:11:30;4.63;;;3.22;;
61038;SDS011;46919;45.816;3.104;2023-08-17T14:13:56;5.25;;;3.08;;
61038;SDS011;46919;45.816;3.104;2023-08-17T14:16:21;7.43;;;3.30;;
61038;SDS011;46919;45.816;3.104;2023-08-17T14:18:47;4.75;;;2.72;;
61038;SDS011;46919;45.816;3.104;2023-08-17T14:21:12;6.32;;;2.92;;
61038;SDS011;46919;45.816;3.104;2023-08-17T14:23:38;5.63;;;3.10;;
61038;SDS011;46919;45.816;3.104;2023-08-17T14:26:04;4.15;;;2.85;;
61038;SDS011;46919;45.816;3.104;2023-08-17T14:28:30;8.68;;;3.13;;
61038;SDS011;46919;45.816;3.104;2023-08-17T14:30:55;7.03;;;3.55;;
61038;SDS011;46919;45.816;3.104;2023-08-17T14:33:21;4.65;;;3.03;;
61038;SDS011;46919;45.816;3.104;2023-08-17T14:35:46;6.50;;;3.33;;
61038;SDS011;46919;45.816;3.104;2023-08-17T14:38:11;7.20;;;2.88;;
61038;SDS011;46919;45.816;3.104;2023-08-17T14:40:42;8.80;;;3.63;;
61038;SDS011;46919;45.816;3.104;2023-08-17T14:43:09;5.55;;;2.65;;
61038;SDS011;46919;45.816;3.104;2023-08-17T14:45:36;5.80;;;2.80;;
61038;SDS011;46919;45.816;3.104;2023-08-17T14:48:02;7.97;;;2.92;;
61038;SDS011;46919;45.816;3.104;2023-08-17T14:50:28;5.50;;;3.20;;
61038;SDS011;46919;45.816;3.104;2023-08-17T14:52:53;6.80;;;3.05;;